Flight Track Log - Related Links

Times and Time Zones

All times are in EDT time to prevent confusion due to time zone crossing. See the N731ZF flight status page for this flight to view local times or setup timezone preferences in your user account.

Time Position Orientation Groundspeed Altitude Reporting Facility
EDT Latitude Longitude Course Direction KTS MPH feet Rate Location/Type
Thu 03:07:14 PM 38.7544 -106.6950 285° West 126 145 17,500  Level Denver Center
Thu 03:08:16 PM 38.7631 -106.7358 285° West 121 139 17,700 145 Climbing Denver Center
Thu 03:09:18 PM 38.7722 -106.7794 285° West 125 144 17,800 145 Climbing Denver Center
Thu 03:10:20 PM 38.7811 -106.8175 287° West 116 133 18,000 97 Climbing Denver Center
Thu 03:11:22 PM 38.7889 -106.8578 284° West 114 131 18,000  Level Denver Center
Thu 03:12:24 PM 38.7958 -106.9086 280° West 135 155 18,000  Level Denver Center
Thu 03:13:25 PM 38.8067 -106.9572 286° West 141 162 18,000 -49 Level Denver Center
Thu 03:14:27 PM 38.8197 -107.0161 286° West 142 163 17,900  Descending Denver Center
Thu 03:15:29 PM 38.8272 -107.0597 282° West 131 151 18,000 48 Climbing Denver Center
Thu 03:16:31 PM 38.8369 -107.1078 285° West 135 155 18,000 -49 Level Denver Center
Thu 03:17:32 PM 38.8486 -107.1536 288° West 136 157 17,900  Descending Denver Center
Thu 03:18:34 PM 38.8581 -107.2036 284° West 134 154 18,000 48 Climbing Denver Center
Thu 03:19:36 PM 38.8681 -107.2489 286° West 135 155 18,000  Level Denver Center
Thu 03:20:38 PM 38.8775 -107.3050 282° West 142 163 18,000  Level Denver Center
Thu 03:21:40 PM 38.8878 -107.3528 285° West 145 167 18,000  Level Denver Center
Thu 03:22:41 PM 38.8986 -107.4072 284° West 142 163 18,000  Level Denver Center
Thu 03:23:43 PM 38.9086 -107.4553 285° West 144 166 18,000  Level Denver Center
Thu 03:24:45 PM 38.9183 -107.5039 284° West 145 167 18,000  Level Denver Center
Thu 03:25:47 PM 38.9311 -107.5622 286° West 151 174 18,000  Level Denver Center
Thu 03:26:49 PM 38.9406 -107.6100 284° West 147 169 18,000  Level Denver Center
Thu 03:27:50 PM 38.9514 -107.6686 283° West 149 171 18,000  Level Denver Center
Thu 03:28:52 PM 38.9619 -107.7161 286° West 146 168 18,000 -145 Level Denver Center
Thu 03:29:54 PM 38.9728 -107.7753 283° West 151 174 17,700 -387 Descending Denver Center
Thu 03:30:56 PM 38.9831 -107.8261 285° West 153 176 17,200 -387 Descending Denver Center
Thu 03:31:58 PM 38.9925 -107.8761 284° West 150 173 16,900 -390 Descending Denver Center
Thu 03:32:59 PM 39.0050 -107.9317 286° West 148 170 16,400 -439 Descending Denver Center
Thu 03:34:01 PM 39.0144 -107.9781 285° West 144 166 16,000 -387 Descending Denver Center
Thu 03:35:03 PM 39.0250 -108.0344 284° West 144 166 15,600 -387 Descending Denver Center
Thu 03:36:05 PM 39.0311 -108.0817 279° West 142 163 15,200 -339 Descending Denver Center
Thu 03:37:07 PM 39.0067 -108.1325 238° Southwest 146 168 14,900 -390 Descending Denver Center
Thu 03:38:08 PM 38.9850 -108.1756 237° Southwest 150 173 14,400 -537 Descending Denver Center
Thu 03:39:10 PM 38.9625 -108.2239 239° Southwest 149 171 13,800 -629 Descending Denver Center
Thu 03:40:12 PM 38.9397 -108.2725 239° Southwest 147 169 13,100 -774 Descending Denver Center
Thu 03:41:14 PM 38.9200 -108.3131 238° Southwest 135 155 12,200 -823 Descending Denver Center
Thu 03:42:16 PM 38.9017 -108.3544 240° Southwest 133 153 11,400 -829 Descending Denver Center
Thu 03:43:17 PM 38.9286 -108.3847 319° Northwest 123 142 10,500 -878 Descending Denver Center
Thu 03:44:19 PM 38.9594 -108.4033 335° Northwest 123 142 9,600 -968 Descending Denver Center
Thu 03:45:21 PM 38.9961 -108.4111 351° North 125 144 8,500 -968 Descending Denver Center
Thu 03:46:23 PM 39.0344 -108.4189 351° North 137 158 7,600 -976 Descending Denver Center
Thu 03:47:24 PM 39.0689 -108.4322 343° North 129 148 6,500 -800 Descending Denver Center
Thu 03:48:38 PM 39.0953 -108.4744 309° West 124 143 5,800 -529 Descending Denver Center
Thu 03:49:40 PM 39.1108 -108.5011 307° West 101 116 5,300 -439 Descending Denver Center
Thu 03:50:41 PM 39.1211 -108.5197 305° West 88 101 4,900 -393 Descending Denver Center
Thu 03:52:00 PM 39.1167 -108.5167 311° West  Level FlightAware Approximate
Thu 03:59:00 PM 39.1224 -108.5267 311° West  Level Estimated
Thu 04:00:00 PM 39.1224 -108.5267 311° West  Level Estimated

Login

Don't have an account? Register now (free) for customized features, flight alerts, and more!